Daytona Beach, FL

5:36 PM EST on February 05, 2016 (GMT -0500)
Daytona State College | | Change Station
CLOSE
Current Station
Personal Weather Station
Location: Daytona Beach, FL
Elevation: 0 ft
Nearby Weather Stations
Active Advisory: Beach Hazard Statement Active Notice: Record Report

Elev 0 ft 29.20 °N, 81.05 °W | Updated 25 seconds ago

Scattered Clouds
Scattered Clouds
54.2 °F
Feels Like 54.2 °F
N
10.0
Wind Variable Wind from NNW
Gusts 20.0 mph

Today
High -- | Low -- °F
--% Chance of Precip.
Yesterday
High -- | Low -- °F
Precip. -- in
Pressure 30.26 in
Visibility 10.0 miles
Clouds Scattered Clouds 2600 ft
Dew Point 47 °F
Humidity 76%
Rainfall 0.00 in
Snow Depth Not available.
7:11 AM 6:05 PM
Waning Crescent, 9% visible
METAR KDAB 052153Z 35012G21KT 10SM SCT026 12/07 A3026 RMK AO2 SLP247 T01220067 $
Pressure 30.26 in
Visibility 10.0 miles
Clouds Scattered Clouds 2600 ft
Dew Point 47 °F
Humidity 76%
Rainfall 0.00 in
Snow Depth Not available.
7:11 AM 6:05 PM
Waning Crescent, 9% visible
METAR KDAB 052153Z 35012G21KT 10SM SCT026 12/07 A3026 RMK AO2 SLP247 T01220067 $

10-Day Weather Forecast

Almanac

Astronomy

Feb. 05, 2016 Rise Set
Actual Time
Civil Twilight
Nautical Twilight
Astronomical Twilight
Moon
Length of Visible Light
Length of Day
Tomorrow will be .
, % of the Moon is Illuminated

Today's Extremes

State Highs State Lows

Community

WunderPhotos

Upload Photos

1,890,879 photos uploaded!

WunderBlog® & News

Nearby

Air Quality

  Air Quality AQ Index Pollutant
Not available.

Snow Depth

Station Depth Elevation

Earthquake Activity

City Distance Mag. Time & Date
Minimum magnitude displayed is 2.5.

Coastal Water Temperatures

Place Temperature

Stations

Nearby Weather Stations

Station Location Temp. Windchill Dew Point Humidity Wind Precip. Elev Updated Type
                   

Watches & Warnings

Beach Hazard Statement
Issued: 2:37 AM EST Feb. 5, 2016 – National Weather Service

... Beach hazards statement in effect from 6 am EST this morning
through this afternoon...

The National Weather Service in Melbourne has issued a beach
hazards statement for strong north to south flowing longshore
currents... which is in effect from 6 am EST this morning through
this afternoon.

* Hazards... strong south flowing longshore currents.

* Timing... 6 am through 6 PM.

* Location... east central Florida beaches.

* Potential impacts... a longshore current is caused by wind waves
and flows parallel to the coastline. The south flowing longshore
current can push you off a sandbar further south along the
coastline and potentially into deeper water. Longshore currents
also have the capability to push you down the coast and right
into a rip current.

Precautionary/preparedness actions...

A beach hazards statement is issued when threats such as rip
currents... longshore currents... rough surf and other hazards
create life-threatening conditions in the surf zone. Caution
should be used when in or near the water.



Sedlock